Minneapolis, Minnesota
Traffic Map
Current Weather Conditions
Minneapolis, Minnesota
Overcast
Overcast
33°
Feels Like: 27°
Wind Chill: 27° Ceiling: 2400
Heat Index: 33° Visibility: 10mi
Dew Point: 22° Wind: 7mph
Humidity: 64% Direction: 310° (NW)
Pressure: 30.24in Gusts: 0mph
Raw Report DataKMSP 021953Z 31006KT 10SM OVC024 01/M06 A3024 RMK AO2 SLP251 T00061056
Traffic Incident Summary
Active as of:
Severity:
Category:
InformationThere was an issue retrieving the traffic information for this location. Please try a different location or try again shortly.
Advertisements
Track Severe Weather on mobile